VEAT/IXA METAR and TAF weather

Enter ICAO airport designator
Station Type Date Time Source
VEAT METAR 2020/11/27 03:00 UTC NOAA

VEAT 270300Z 00000KT 2500 BR FEW100 22/19 Q1017 BECMG 3000 HZ


Station Type Date Time Source
VEAT Decoded METAR 2020/11/27 03:00 UTC NOAA

Agartala, India (VEAT) 23-53N 091-15E 16M
Nov 26, 2020 - 10:00 PM EST / 2020.11.27 0300 UTC
Wind: Calm:0
Visibility: 1 mile(s):0
Sky conditions: mostly clear
Weather: mist
Temperature: 71 F (22 C)
Dew Point: 66 F (19 C)
Relative Humidity: 83%
Pressure (altimeter): 30.03 in. Hg (1017 hPa)
ob: VEAT 270300Z 00000KT 2500 BR FEW100 22/19 Q1017 BECMG 3000 HZ
cycle: 3

Station Type Date Time Source
VEAT TAF 2013/07/19 12:00 UTC NOAA

TAF VEAT 190900Z 1912/1921 16008KT 5000 HZ SCT018 FEW030CB BKN100
TEMPO 1912/1921 3000 -TSRA SCT015 FEW025CB OVC090

Example: see airport list